Terminal Aerodrome Forecast
Issued by NWS Green Bay, WI

Home | Current Version | Previous Version | Text Only | Print | Product List | Glossary On
Versions: 1 2 3 4 5 6 7 8 9 10 11 12 13 14 15 16 17 18 19
000
FTUS43 KGRB 041741
TAFGRB
TAF
KGRB 041741Z 0418/0518 16005KT 1SM -SN BR SCT007 OVC014
      TEMPO 0418/0419 3/4SM -SN OVC007
     FM041900 16005KT 1SM -SN BR SCT006 OVC012
      TEMPO 0419/0423 1/2SM SN OVC006
     FM050100 21007KT 3SM -SN OVC012
     FM050300 23007KT P6SM OVC020
     FM051200 23006KT P6SM BKN030=

USA.gov is the U.S. government's official web portal to all federal, state and local government web resources and services.